sensor_id;sensor_type;location;lat;lon;timestamp;pressure;altitude;pressure_sealevel;temperature;humidity
71770;BME280;66386;52.122;5.420;2023-04-08T00:01:53;102402.91;;;7.43;95.46
71770;BME280;66386;52.122;5.420;2023-04-08T00:04:19;102402.03;;;7.40;95.53
71770;BME280;66386;52.122;5.420;2023-04-08T00:06:46;102407.16;;;7.35;95.30
71770;BME280;66386;52.122;5.420;2023-04-08T00:09:12;102400.31;;;7.29;95.35
71770;BME280;66386;52.122;5.420;2023-04-08T00:11:39;102408.84;;;7.28;95.44
71770;BME280;66386;52.122;5.420;2023-04-08T00:14:06;102400.31;;;7.28;95.61
71770;BME280;66386;52.122;5.420;2023-04-08T00:16:32;102407.16;;;7.24;95.71
71770;BME280;66386;52.122;5.420;2023-04-08T00:18:59;102407.13;;;7.20;95.65
71770;BME280;66386;52.122;5.420;2023-04-08T00:21:25;102409.66;;;7.20;95.63
71770;BME280;66386;52.122;5.420;2023-04-08T00:23:52;102404.56;;;7.21;95.78
71770;BME280;66386;52.122;5.420;2023-04-08T00:26:18;102405.44;;;7.25;95.81
71770;BME280;66386;52.122;5.420;2023-04-08T00:28:45;102405.44;;;7.23;96.09
71770;BME280;66386;52.122;5.420;2023-04-08T00:31:12;102408.00;;;7.22;96.02
71770;BME280;66386;52.122;5.420;2023-04-08T00:33:38;102403.72;;;7.16;95.78
71770;BME280;66386;52.122;5.420;2023-04-08T00:36:05;102395.16;;;7.11;95.81
71770;BME280;66386;52.122;5.420;2023-04-08T00:38:31;102404.53;;;7.13;96.07
71770;BME280;66386;52.122;5.420;2023-04-08T00:40:58;102414.78;;;7.09;95.87
71770;BME280;66386;52.122;5.420;2023-04-08T00:43:24;102412.22;;;7.07;95.90
71770;BME280;66386;52.122;5.420;2023-04-08T00:45:51;102422.44;;;7.06;96.13
71770;BME280;66386;52.122;5.420;2023-04-08T00:48:18;102416.44;;;7.04;96.00
71770;BME280;66386;52.122;5.420;2023-04-08T00:50:44;102424.16;;;7.07;95.98
71770;BME280;66386;52.122;5.420;2023-04-08T00:53:17;102421.59;;;7.08;96.24
71770;BME280;66386;52.122;5.420;2023-04-08T00:55:44;102427.53;;;7.07;96.25
71770;BME280;66386;52.122;5.420;2023-04-08T00:58:11;102408.81;;;7.07;96.33
71770;BME280;66386;52.122;5.420;2023-04-08T01:03:36;102407.09;;;7.06;96.35
71770;BME280;66386;52.122;5.420;2023-04-08T01:06:29;102419.00;;;7.04;96.11
71770;BME280;66386;52.122;5.420;2023-04-08T01:08:59;102431.75;;;6.96;96.00
71770;BME280;66386;52.122;5.420;2023-04-08T01:11:27;102426.63;;;6.94;96.00
71770;BME280;66386;52.122;5.420;2023-04-08T01:13:57;102429.19;;;6.93;96.20
71770;BME280;66386;52.122;5.420;2023-04-08T01:16:24;102430.03;;;6.96;95.98
71770;BME280;66386;52.122;5.420;2023-04-08T01:18:52;102429.19;;;6.96;96.08
71770;BME280;66386;52.122;5.420;2023-04-08T01:21:20;102430.03;;;6.93;96.07
71770;BME280;66386;52.122;5.420;2023-04-08T01:24:00;102434.31;;;6.91;96.23
71770;BME280;66386;52.122;5.420;2023-04-08T01:26:29;102433.44;;;6.89;96.02
71770;BME280;66386;52.122;5.420;2023-04-08T01:28:58;102432.56;;;6.87;96.13
71770;BME280;66386;52.122;5.420;2023-04-08T01:31:26;102433.41;;;6.85;95.94
71770;BME280;66386;52.122;5.420;2023-04-08T01:33:54;102435.09;;;6.76;95.98
71770;BME280;66386;52.122;5.420;2023-04-08T01:36:22;102432.53;;;6.75;96.26
71770;BME280;66386;52.122;5.420;2023-04-08T01:38:49;102435.94;;;6.75;96.17
71770;BME280;66386;52.122;5.420;2023-04-08T01:41:18;102436.75;;;6.67;96.06
71770;BME280;66386;52.122;5.420;2023-04-08T01:43:47;102438.44;;;6.63;96.11
71770;BME280;66386;52.122;5.420;2023-04-08T01:46:15;102441.00;;;6.63;96.17
71770;BME280;66386;52.122;5.420;2023-04-08T01:48:43;102445.22;;;6.64;96.28
71770;BME280;66386;52.122;5.420;2023-04-08T01:51:10;102445.22;;;6.62;96.04
71770;BME280;66386;52.122;5.420;2023-04-08T01:53:37;102445.22;;;6.58;96.03
71770;BME280;66386;52.122;5.420;2023-04-08T01:56:06;102440.09;;;6.56;96.13
71770;BME280;66386;52.122;5.420;2023-04-08T01:58:40;102447.75;;;6.53;95.86
71770;BME280;66386;52.122;5.420;2023-04-08T02:01:13;102440.91;;;6.52;95.84
71770;BME280;66386;52.122;5.420;2023-04-08T02:03:42;102442.63;;;6.53;96.07
71770;BME280;66386;52.122;5.420;2023-04-08T02:06:09;102445.16;;;6.50;96.16
71770;BME280;66386;52.122;5.420;2023-04-08T02:08:36;102438.34;;;6.47;96.00
71770;BME280;66386;52.122;5.420;2023-04-08T02:11:02;102445.09;;;6.42;95.91
71770;BME280;66386;52.122;5.420;2023-04-08T02:13:30;102432.31;;;6.41;95.93
71770;BME280;66386;52.122;5.420;2023-04-08T02:16:03;102442.53;;;6.42;96.05
71770;BME280;66386;52.122;5.420;2023-04-08T02:18:33;102442.59;;;6.45;96.14
71770;BME280;66386;52.122;5.420;2023-04-08T02:21:09;102438.34;;;6.47;96.04
71770;BME280;66386;52.122;5.420;2023-04-08T02:23:38;102444.28;;;6.50;96.13
71770;BME280;66386;52.122;5.420;2023-04-08T02:26:12;102445.19;;;6.52;96.35
71770;BME280;66386;52.122;5.420;2023-04-08T02:28:40;102449.41;;;6.50;96.11
71770;BME280;66386;52.122;5.420;2023-04-08T02:31:09;102451.13;;;6.51;96.28
71770;BME280;66386;52.122;5.420;2023-04-08T02:33:39;102457.06;;;6.51;96.46
71770;BME280;66386;52.122;5.420;2023-04-08T02:36:07;102455.38;;;6.50;96.15
71770;BME280;66386;52.122;5.420;2023-04-08T02:38:33;102452.84;;;6.50;96.24
71770;BME280;66386;52.122;5.420;2023-04-08T02:41:00;102456.22;;;6.51;96.25
71770;BME280;66386;52.122;5.420;2023-04-08T02:43:27;102451.09;;;6.46;96.50
71770;BME280;66386;52.122;5.420;2023-04-08T02:45:58;102461.28;;;6.38;96.36
71770;BME280;66386;52.122;5.420;2023-04-08T02:48:29;102464.63;;;6.29;96.26
71770;BME280;66386;52.122;5.420;2023-04-08T02:50:56;102459.50;;;6.26;96.33
71770;BME280;66386;52.122;5.420;2023-04-08T02:53:23;102459.50;;;6.28;96.28
71770;BME280;66386;52.122;5.420;2023-04-08T02:55:49;102468.00;;;6.28;96.57
71770;BME280;66386;52.122;5.420;2023-04-08T02:58:16;102467.16;;;6.28;96.56
71770;BME280;66386;52.122;5.420;2023-04-08T03:00:42;102476.47;;;6.24;96.49
71770;BME280;66386;52.122;5.420;2023-04-08T03:03:09;102472.25;;;6.26;96.49
71770;BME280;66386;52.122;5.420;2023-04-08T03:05:35;102476.47;;;6.24;96.59
71770;BME280;66386;52.122;5.420;2023-04-08T03:08:02;102468.78;;;6.18;96.56
71770;BME280;66386;52.122;5.420;2023-04-08T03:10:29;102474.69;;;6.14;96.43
71770;BME280;66386;52.122;5.420;2023-04-08T03:12:56;102469.56;;;6.11;96.42
71770;BME280;66386;52.122;5.420;2023-04-08T03:15:22;102475.50;;;6.10;96.29
71770;BME280;66386;52.122;5.420;2023-04-08T03:17:48;102466.13;;;6.07;96.33
71770;BME280;66386;52.122;5.420;2023-04-08T03:20:15;102474.63;;;6.05;96.08
71770;BME280;66386;52.122;5.420;2023-04-08T03:22:41;102476.31;;;6.03;96.25
71770;BME280;66386;52.122;5.420;2023-04-08T03:25:08;102471.19;;;6.00;96.15
71770;BME280;66386;52.122;5.420;2023-04-08T03:27:35;102472.88;;;5.98;96.21
71770;BME280;66386;52.122;5.420;2023-04-08T03:30:01;102471.13;;;5.97;96.14
71770;BME280;66386;52.122;5.420;2023-04-08T03:32:28;102473.66;;;5.95;96.30
71770;BME280;66386;52.122;5.420;2023-04-08T03:34:54;102481.31;;;5.97;96.25
71770;BME280;66386;52.122;5.420;2023-04-08T03:37:21;102468.53;;;5.93;96.25
71770;BME280;66386;52.122;5.420;2023-04-08T03:39:47;102469.38;;;5.92;96.34
71770;BME280;66386;52.122;5.420;2023-04-08T03:42:14;102477.03;;;5.92;96.68
71770;BME280;66386;52.122;5.420;2023-04-08T03:44:40;102471.94;;;5.92;96.43
71770;BME280;66386;52.122;5.420;2023-04-08T03:47:07;102475.34;;;5.93;96.43
71770;BME280;66386;52.122;5.420;2023-04-08T03:49:33;102478.75;;;5.93;96.53
71770;BME280;66386;52.122;5.420;2023-04-08T03:51:59;102478.75;;;5.93;96.51
71770;BME280;66386;52.122;5.420;2023-04-08T03:54:26;102482.13;;;5.92;96.48
71770;BME280;66386;52.122;5.420;2023-04-08T03:56:52;102477.84;;;5.88;96.48
71770;BME280;66386;52.122;5.420;2023-04-08T03:59:19;102480.34;;;5.84;96.40
71770;BME280;66386;52.122;5.420;2023-04-08T04:01:45;102484.59;;;5.80;96.41
71770;BME280;66386;52.122;5.420;2023-04-08T04:04:12;102482.06;;;5.83;96.48
71770;BME280;66386;52.122;5.420;2023-04-08T04:06:39;102491.44;;;5.86;96.55
71770;BME280;66386;52.122;5.420;2023-04-08T04:09:06;102496.53;;;5.84;96.43
71770;BME280;66386;52.122;5.420;2023-04-08T04:11:35;102504.13;;;5.80;96.31
71770;BME280;66386;52.122;5.420;2023-04-08T04:14:02;102493.88;;;5.75;96.31
71770;BME280;66386;52.122;5.420;2023-04-08T04:16:29;102504.06;;;5.73;96.27
71770;BME280;66386;52.122;5.420;2023-04-08T04:18:58;102507.44;;;5.71;96.33
71770;BME280;66386;52.122;5.420;2023-04-08T04:21:24;102510.88;;;5.73;95.95
71770;BME280;66386;52.122;5.420;2023-04-08T04:23:52;102515.97;;;5.71;96.20
71770;BME280;66386;52.122;5.420;2023-04-08T04:26:18;102516.78;;;5.69;96.06
71770;BME280;66386;52.122;5.420;2023-04-08T04:28:45;102521.00;;;5.65;95.91
71770;BME280;66386;52.122;5.420;2023-04-08T04:31:19;102518.47;;;5.67;95.95
71770;BME280;66386;52.122;5.420;2023-04-08T04:33:47;102523.56;;;5.64;95.95
71770;BME280;66386;52.122;5.420;2023-04-08T04:36:14;102527.00;;;5.69;95.82
71770;BME280;66386;52.122;5.420;2023-04-08T04:38:40;102524.44;;;5.67;95.81
71770;BME280;66386;52.122;5.420;2023-04-08T04:41:08;102530.31;;;5.62;95.64
71770;BME280;66386;52.122;5.420;2023-04-08T04:43:34;102528.50;;;5.51;95.39
71770;BME280;66386;52.122;5.420;2023-04-08T04:46:01;102536.09;;;5.45;95.28
71770;BME280;66386;52.122;5.420;2023-04-08T04:48:29;102530.91;;;5.39;95.04
71770;BME280;66386;52.122;5.420;2023-04-08T04:50:56;102541.06;;;5.36;94.82
71770;BME280;66386;52.122;5.420;2023-04-08T04:53:23;102537.63;;;5.32;94.80
71770;BME280;66386;52.122;5.420;2023-04-08T04:55:50;102543.50;;;5.27;94.84
71770;BME280;66386;52.122;5.420;2023-04-08T04:58:16;102545.97;;;5.20;94.54
71770;BME280;66386;52.122;5.420;2023-04-08T05:00:44;102555.34;;;5.23;94.68
71770;BME280;66386;52.122;5.420;2023-04-08T05:03:14;102552.75;;;5.18;94.53
71770;BME280;66386;52.122;5.420;2023-04-08T05:05:40;102558.59;;;5.10;94.44
71770;BME280;66386;52.122;5.420;2023-04-08T05:08:07;102552.53;;;5.03;94.38
71770;BME280;66386;52.122;5.420;2023-04-08T05:10:33;102557.56;;;4.98;94.59
71770;BME280;66386;52.122;5.420;2023-04-08T05:12:59;102560.94;;;4.97;94.46
71770;BME280;66386;52.122;5.420;2023-04-08T05:15:26;102558.34;;;4.93;94.16
71770;BME280;66386;52.122;5.420;2023-04-08T05:17:52;102560.84;;;4.89;94.27
71770;BME280;66386;52.122;5.420;2023-04-08T05:20:19;102560.72;;;4.82;94.09
71770;BME280;66386;52.122;5.420;2023-04-08T05:22:45;102563.22;;;4.79;94.12
71770;BME280;66386;52.122;5.420;2023-04-08T05:25:12;102567.41;;;4.74;94.14
71770;BME280;66386;52.122;5.420;2023-04-08T05:27:38;102571.66;;;4.75;94.14
71770;BME280;66386;52.122;5.420;2023-04-08T05:30:06;102572.50;;;4.74;93.97
71770;BME280;66386;52.122;5.420;2023-04-08T05:32:33;102572.50;;;4.75;93.84
71770;BME280;66386;52.122;5.420;2023-04-08T05:35:03;102576.81;;;4.78;94.11
71770;BME280;66386;52.122;5.420;2023-04-08T05:37:30;102573.31;;;4.72;93.79
71770;BME280;66386;52.122;5.420;2023-04-08T05:39:56;102575.75;;;4.65;93.82
71770;BME280;66386;52.122;5.420;2023-04-08T05:42:22;102576.53;;;4.61;93.94
71770;BME280;66386;52.122;5.420;2023-04-08T05:44:49;102582.34;;;4.53;93.78
71770;BME280;66386;52.122;5.420;2023-04-08T05:47:15;102584.91;;;4.53;93.64
71770;BME280;66386;52.122;5.420;2023-04-08T05:49:42;102581.47;;;4.51;93.74
71770;BME280;66386;52.122;5.420;2023-04-08T05:52:08;102588.31;;;4.55;93.81
71770;BME280;66386;52.122;5.420;2023-04-08T05:54:34;102590.88;;;4.55;93.85
71770;BME280;66386;52.122;5.420;2023-04-08T05:57:01;102588.38;;;4.57;93.68
71770;BME280;66386;52.122;5.420;2023-04-08T05:59:27;102585.75;;;4.54;93.49
71770;BME280;66386;52.122;5.420;2023-04-08T06:01:54;102585.72;;;4.52;93.45
71770;BME280;66386;52.122;5.420;2023-04-08T06:04:22;102588.25;;;4.51;93.11
71770;BME280;66386;52.122;5.420;2023-04-08T06:06:49;102590.81;;;4.52;92.75
71770;BME280;66386;52.122;5.420;2023-04-08T06:09:15;102589.09;;;4.50;92.74
71770;BME280;66386;52.122;5.420;2023-04-08T06:11:42;102593.38;;;4.52;92.48
71770;BME280;66386;52.122;5.420;2023-04-08T06:14:08;102587.50;;;4.58;92.43
71770;BME280;66386;52.122;5.420;2023-04-08T06:16:35;102593.41;;;4.55;92.66
71770;BME280;66386;52.122;5.420;2023-04-08T06:19:01;102590.03;;;4.57;92.38
71770;BME280;66386;52.122;5.420;2023-04-08T06:21:27;102594.31;;;4.58;92.33
71770;BME280;66386;52.122;5.420;2023-04-08T06:23:54;102590.03;;;4.57;92.08
71770;BME280;66386;52.122;5.420;2023-04-08T06:26:21;102601.94;;;4.58;91.68
71770;BME280;66386;52.122;5.420;2023-04-08T06:28:47;102607.94;;;4.61;91.57
71770;BME280;66386;52.122;5.420;2023-04-08T06:31:14;102606.22;;;4.59;91.17
71770;BME280;66386;52.122;5.420;2023-04-08T06:33:40;102618.13;;;4.61;91.11
71770;BME280;66386;52.122;5.420;2023-04-08T06:36:07;102621.53;;;4.62;90.94
71770;BME280;66386;52.122;5.420;2023-04-08T06:38:34;102619.84;;;4.62;90.75
71770;BME280;66386;52.122;5.420;2023-04-08T06:41:04;102630.06;;;4.64;90.78
71770;BME280;66386;52.122;5.420;2023-04-08T06:43:32;102630.88;;;4.63;90.56
71770;BME280;66386;52.122;5.420;2023-04-08T06:45:59;102637.75;;;4.67;90.21
71770;BME280;66386;52.122;5.420;2023-04-08T06:48:25;102636.91;;;4.68;90.26
71770;BME280;66386;52.122;5.420;2023-04-08T06:50:59;102641.25;;;4.72;90.05
71770;BME280;66386;52.122;5.420;2023-04-08T06:53:26;102644.72;;;4.79;89.97
71770;BME280;66386;52.122;5.420;2023-04-08T06:55:54;102644.97;;;4.93;89.66
71770;BME280;66386;52.122;5.420;2023-04-08T06:58:21;102651.97;;;5.06;89.90
71770;BME280;66386;52.122;5.420;2023-04-08T07:00:47;102643.66;;;5.19;89.54
71770;BME280;66386;52.122;5.420;2023-04-08T07:03:14;102650.66;;;5.33;89.30
71770;BME280;66386;52.122;5.420;2023-04-08T07:05:40;102655.13;;;5.48;88.48
71770;BME280;66386;52.122;5.420;2023-04-08T07:08:07;102660.44;;;5.65;87.91
71770;BME280;66386;52.122;5.420;2023-04-08T07:10:34;102662.38;;;5.81;87.06
71770;BME280;66386;52.122;5.420;2023-04-08T07:13:01;102667.78;;;6.07;87.22
71770;BME280;66386;52.122;5.420;2023-04-08T07:15:27;102662.00;;;6.22;85.19
71770;BME280;66386;52.122;5.420;2023-04-08T07:17:54;102665.56;;;6.37;84.93
71770;BME280;66386;52.122;5.420;2023-04-08T07:20:22;102669.16;;;6.54;83.35
71770;BME280;66386;52.122;5.420;2023-04-08T07:22:49;102664.97;;;6.64;83.00
71770;BME280;66386;52.122;5.420;2023-04-08T07:25:16;102677.06;;;6.82;82.07
71770;BME280;66386;52.122;5.420;2023-04-08T07:27:42;102680.66;;;7.06;81.50
71770;BME280;66386;52.122;5.420;2023-04-08T07:30:09;102685.97;;;7.33;80.91
71770;BME280;66386;52.122;5.420;2023-04-08T07:32:35;102687.78;;;7.59;79.88
71770;BME280;66386;52.122;5.420;2023-04-08T07:35:02;102692.16;;;7.77;78.24
71770;BME280;66386;52.122;5.420;2023-04-08T07:37:29;102685.41;;;7.92;77.74
71770;BME280;66386;52.122;5.420;2023-04-08T07:39:55;102684.59;;;8.03;75.93
71770;BME280;66386;52.122;5.420;2023-04-08T07:42:22;102697.44;;;8.19;75.16
71770;BME280;66386;52.122;5.420;2023-04-08T07:44:48;102688.06;;;8.21;75.37
71770;BME280;66386;52.122;5.420;2023-04-08T07:47:15;102689.81;;;8.30;74.85
71770;BME280;66386;52.122;5.420;2023-04-08T07:49:41;102690.69;;;8.43;74.30
71770;BME280;66386;52.122;5.420;2023-04-08T07:52:08;102693.28;;;8.49;74.41
71770;BME280;66386;52.122;5.420;2023-04-08T07:54:35;102684.75;;;8.73;73.10
71770;BME280;66386;52.122;5.420;2023-04-08T07:57:01;102693.31;;;8.78;72.84
71770;BME280;66386;52.122;5.420;2023-04-08T07:59:28;102691.63;;;8.91;72.15
71770;BME280;66386;52.122;5.420;2023-04-08T08:01:54;102689.06;;;8.94;70.73
71770;BME280;66386;52.122;5.420;2023-04-08T08:04:21;102692.47;;;8.95;71.91
71770;BME280;66386;52.122;5.420;2023-04-08T08:06:51;102693.31;;;9.11;71.42
71770;BME280;66386;52.122;5.420;2023-04-08T08:09:17;102695.00;;;9.25;70.06
71770;BME280;66386;52.122;5.420;2023-04-08T08:11:44;102694.13;;;9.42;71.65
71770;BME280;66386;52.122;5.420;2023-04-08T08:14:10;102693.28;;;9.49;71.21
71770;BME280;66386;52.122;5.420;2023-04-08T08:16:39;102692.38;;;9.55;68.95
71770;BME280;66386;52.122;5.420;2023-04-08T08:19:05;102698.31;;;9.69;69.29
71770;BME280;66386;52.122;5.420;2023-04-08T08:21:35;102701.66;;;9.90;69.41
71770;BME280;66386;52.122;5.420;2023-04-08T08:24:02;102695.63;;;9.99;69.63
71770;BME280;66386;52.122;5.420;2023-04-08T08:26:28;102697.31;;;10.10;69.15
71770;BME280;66386;52.122;5.420;2023-04-08T08:28:55;102692.13;;;10.20;68.55
71770;BME280;66386;52.122;5.420;2023-04-08T08:31:21;102702.34;;;10.37;68.66
71770;BME280;66386;52.122;5.420;2023-04-08T08:33:48;102698.06;;;10.36;67.10
71770;BME280;66386;52.122;5.420;2023-04-08T08:36:15;102710.00;;;10.44;67.91
71770;BME280;66386;52.122;5.420;2023-04-08T08:38:41;102702.34;;;10.38;66.56
71770;BME280;66386;52.122;5.420;2023-04-08T08:41:08;102698.00;;;10.43;66.20
71770;BME280;66386;52.122;5.420;2023-04-08T08:43:34;102706.53;;;10.52;66.84
71770;BME280;66386;52.122;5.420;2023-04-08T08:46:01;102714.22;;;10.56;65.83
71770;BME280;66386;52.122;5.420;2023-04-08T08:48:27;102708.13;;;10.70;65.17
71770;BME280;66386;52.122;5.420;2023-04-08T08:50:54;102708.94;;;10.72;64.19
71770;BME280;66386;52.122;5.420;2023-04-08T08:53:20;102711.50;;;10.78;63.08
71770;BME280;66386;52.122;5.420;2023-04-08T08:55:48;102710.63;;;10.76;63.22
71770;BME280;66386;52.122;5.420;2023-04-08T08:58:35;102714.81;;;10.92;64.12
71770;BME280;66386;52.122;5.420;2023-04-08T09:01:01;102713.81;;;11.10;65.16
71770;BME280;66386;52.122;5.420;2023-04-08T09:03:28;102717.88;;;11.31;63.02
71770;BME280;66386;52.122;5.420;2023-04-08T09:05:57;102720.25;;;11.53;63.61
71770;BME280;66386;52.122;5.420;2023-04-08T09:08:31;102716.50;;;11.80;63.10
71770;BME280;66386;52.122;5.420;2023-04-08T09:11:16;102720.44;;;12.14;63.18
71770;BME280;66386;52.122;5.420;2023-04-08T09:13:44;102719.78;;;12.60;61.35
71770;BME280;66386;52.122;5.420;2023-04-08T09:16:16;102722.66;;;12.95;59.44
71770;BME280;66386;52.122;5.420;2023-04-08T09:18:49;102724.38;;;13.47;57.33
71770;BME280;66386;52.122;5.420;2023-04-08T09:21:16;102726.09;;;13.92;55.75
71770;BME280;66386;52.122;5.420;2023-04-08T09:23:47;102724.13;;;14.03;55.73
71770;BME280;66386;52.122;5.420;2023-04-08T09:26:16;102733.69;;;14.39;55.05
71770;BME280;66386;52.122;5.420;2023-04-08T09:28:43;102727.84;;;14.30;54.58
71770;BME280;66386;52.122;5.420;2023-04-08T09:31:27;102732.56;;;14.11;55.13
71770;BME280;66386;52.122;5.420;2023-04-08T09:34:08;102736.06;;;14.48;55.66
71770;BME280;66386;52.122;5.420;2023-04-08T09:36:35;102738.31;;;14.65;54.71
71770;BME280;66386;52.122;5.420;2023-04-08T09:39:01;102737.56;;;14.58;52.69
71770;BME280;66386;52.122;5.420;2023-04-08T09:41:28;102743.16;;;14.40;53.09
71770;BME280;66386;52.122;5.420;2023-04-08T09:43:57;102748.97;;;14.09;54.30
71770;BME280;66386;52.122;5.420;2023-04-08T09:46:39;102737.84;;;14.07;56.56
71770;BME280;66386;52.122;5.420;2023-04-08T09:49:16;102746.91;;;13.84;55.64
71770;BME280;66386;52.122;5.420;2023-04-08T09:54:54;102738.28;;;13.40;54.83
71770;BME280;66386;52.122;5.420;2023-04-08T10:00:04;102741.63;;;12.92;55.71
71770;BME280;66386;52.122;5.420;2023-04-08T10:02:39;102739.03;;;12.93;56.87
71770;BME280;66386;52.122;5.420;2023-04-08T10:05:06;102736.41;;;12.97;55.92
71770;BME280;66386;52.122;5.420;2023-04-08T10:07:34;102735.78;;;12.82;55.89
71770;BME280;66386;52.122;5.420;2023-04-08T10:10:01;102734.84;;;12.86;55.20
71770;BME280;66386;52.122;5.420;2023-04-08T10:12:28;102733.47;;;12.65;55.14
71770;BME280;66386;52.122;5.420;2023-04-08T10:15:30;102724.66;;;12.77;57.17
71770;BME280;66386;52.122;5.420;2023-04-08T10:23:00;102731.19;;;13.00;56.82
71770;BME280;66386;52.122;5.420;2023-04-08T10:25:28;102722.44;;;13.10;57.49
71770;BME280;66386;52.122;5.420;2023-04-08T10:30:51;102721.16;;;13.33;56.07
71770;BME280;66386;52.122;5.420;2023-04-08T10:33:31;102727.13;;;13.38;54.87
71770;BME280;66386;52.122;5.420;2023-04-08T10:36:09;102717.75;;;13.31;54.84
71770;BME280;66386;52.122;5.420;2023-04-08T10:38:40;102722.38;;;13.61;55.83
71770;BME280;66386;52.122;5.420;2023-04-08T10:41:10;102723.66;;;13.83;54.90
71770;BME280;66386;52.122;5.420;2023-04-08T10:43:39;102718.16;;;14.00;55.34
71770;BME280;66386;52.122;5.420;2023-04-08T10:46:09;102720.59;;;14.06;53.25
71770;BME280;66386;52.122;5.420;2023-04-08T10:48:36;102723.75;;;13.78;53.63
71770;BME280;66386;52.122;5.420;2023-04-08T10:51:04;102721.03;;;13.84;54.11
71770;BME280;66386;52.122;5.420;2023-04-08T10:53:35;102717.41;;;13.93;54.26
71770;BME280;66386;52.122;5.420;2023-04-08T10:56:12;102718.38;;;13.90;53.54
71770;BME280;66386;52.122;5.420;2023-04-08T10:58:51;102714.16;;;13.85;55.07
71770;BME280;66386;52.122;5.420;2023-04-08T11:01:18;102722.31;;;14.07;53.78
71770;BME280;66386;52.122;5.420;2023-04-08T11:03:45;102714.09;;;13.88;52.66
71770;BME280;66386;52.122;5.420;2023-04-08T11:06:12;102711.78;;;13.74;53.84
71770;BME280;66386;52.122;5.420;2023-04-08T11:08:38;102710.44;;;13.98;55.66
71770;BME280;66386;52.122;5.420;2023-04-08T11:11:06;102710.06;;;14.17;50.65
71770;BME280;66386;52.122;5.420;2023-04-08T11:13:40;102701.69;;;14.04;51.85
71770;BME280;66386;52.122;5.420;2023-04-08T11:16:20;102707.22;;;14.27;52.11
71770;BME280;66386;52.122;5.420;2023-04-08T11:18:47;102711.38;;;14.35;51.18
71770;BME280;66386;52.122;5.420;2023-04-08T11:21:14;102710.91;;;14.55;50.38
71770;BME280;66386;52.122;5.420;2023-04-08T11:23:42;102702.78;;;14.34;50.56
71770;BME280;66386;52.122;5.420;2023-04-08T11:26:09;102706.13;;;14.38;50.54
71770;BME280;66386;52.122;5.420;2023-04-08T11:28:36;102701.47;;;14.52;48.78
71770;BME280;66386;52.122;5.420;2023-04-08T11:31:02;102702.34;;;14.51;45.88
71770;BME280;66386;52.122;5.420;2023-04-08T11:33:30;102700.06;;;14.39;45.85
71770;BME280;66386;52.122;5.420;2023-04-08T11:36:00;102703.59;;;14.35;47.35
71770;BME280;66386;52.122;5.420;2023-04-08T11:38:27;102708.56;;;14.44;45.86
71770;BME280;66386;52.122;5.420;2023-04-08T11:40:57;102708.78;;;14.35;44.59
71770;BME280;66386;52.122;5.420;2023-04-08T11:43:25;102709.81;;;14.27;44.53
71770;BME280;66386;52.122;5.420;2023-04-08T11:45:51;102708.22;;;14.20;44.09
71770;BME280;66386;52.122;5.420;2023-04-08T11:48:18;102710.97;;;14.14;40.57
71770;BME280;66386;52.122;5.420;2023-04-08T11:50:44;102702.28;;;14.17;44.51
71770;BME280;66386;52.122;5.420;2023-04-08T11:55:47;102700.97;;;14.36;45.83
71770;BME280;66386;52.122;5.420;2023-04-08T11:58:14;102710.47;;;14.73;45.31
71770;BME280;66386;52.122;5.420;2023-04-08T12:00:41;102711.94;;;14.85;45.89
71770;BME280;66386;52.122;5.420;2023-04-08T12:03:08;102714.38;;;14.91;46.78
71770;BME280;66386;52.122;5.420;2023-04-08T12:05:35;102706.19;;;14.74;44.29
71770;BME280;66386;52.122;5.420;2023-04-08T12:08:02;102701.50;;;14.51;44.77
71770;BME280;66386;52.122;5.420;2023-04-08T12:10:28;102711.47;;;14.69;40.69
71770;BME280;66386;52.122;5.420;2023-04-08T12:12:55;102700.72;;;14.48;38.57
71770;BME280;66386;52.122;5.420;2023-04-08T12:15:22;102705.81;;;14.52;39.41
71770;BME280;66386;52.122;5.420;2023-04-08T12:17:48;102711.13;;;14.83;39.65
71770;BME280;66386;52.122;5.420;2023-04-08T12:20:15;102704.97;;;14.87;39.04
71770;BME280;66386;52.122;5.420;2023-04-08T12:22:42;102712.38;;;15.03;36.59
71770;BME280;66386;52.122;5.420;2023-04-08T12:25:09;102702.19;;;14.95;36.68
71770;BME280;66386;52.122;5.420;2023-04-08T12:27:35;102709.63;;;14.73;39.83
71770;BME280;66386;52.122;5.420;2023-04-08T12:30:02;102709.56;;;14.76;36.62
71770;BME280;66386;52.122;5.420;2023-04-08T12:32:29;102709.06;;;14.60;36.66
71770;BME280;66386;52.122;5.420;2023-04-08T12:34:55;102715.00;;;14.65;35.19
71770;BME280;66386;52.122;5.420;2023-04-08T12:37:22;102711.38;;;14.72;35.74
71770;BME280;66386;52.122;5.420;2023-04-08T12:39:48;102698.38;;;14.75;35.95
71770;BME280;66386;52.122;5.420;2023-04-08T12:42:15;102704.50;;;14.71;36.25
71770;BME280;66386;52.122;5.420;2023-04-08T12:44:41;102708.81;;;14.72;36.41
71770;BME280;66386;52.122;5.420;2023-04-08T12:47:08;102699.38;;;14.70;38.26
71770;BME280;66386;52.122;5.420;2023-04-08T12:49:35;102703.78;;;14.66;38.08
71770;BME280;66386;52.122;5.420;2023-04-08T12:52:15;102701.41;;;14.55;40.09
71770;BME280;66386;52.122;5.420;2023-04-08T12:54:42;102691.66;;;14.68;40.48
71770;BME280;66386;52.122;5.420;2023-04-08T12:57:08;102702.16;;;14.62;35.46
71770;BME280;66386;52.122;5.420;2023-04-08T12:59:35;102704.25;;;14.44;34.46
71770;BME280;66386;52.122;5.420;2023-04-08T13:02:03;102699.19;;;14.40;33.80
71770;BME280;66386;52.122;5.420;2023-04-08T13:04:29;102701.75;;;14.41;35.44
71770;BME280;66386;52.122;5.420;2023-04-08T13:06:56;102700.72;;;14.47;35.94
71770;BME280;66386;52.122;5.420;2023-04-08T13:09:22;102708.06;;;14.67;38.66
71770;BME280;66386;52.122;5.420;2023-04-08T13:11:49;102710.13;;;14.89;37.75
71770;BME280;66386;52.122;5.420;2023-04-08T13:14:15;102708.78;;;15.07;39.36
71770;BME280;66386;52.122;5.420;2023-04-08T13:16:42;102706.13;;;15.10;38.74
71770;BME280;66386;52.122;5.420;2023-04-08T13:19:09;102706.25;;;15.05;41.15
71770;BME280;66386;52.122;5.420;2023-04-08T13:21:35;102711.59;;;14.99;42.45